FDX668 KSEA-KMEM
Flight info
| Callsign | FDX668 |
|---|---|
| Flight time | N/A |
| Altitude | 41000 |
| Route | SEA1 SEA NORMY J90 MWH KS06K KU87O KU81Q KD72U KD66W KD60Y CUGGA Q148 MORRR RZC BRBBQ3 |
| Aircraft | B77L/H-SDE1E2E3FGHIJ2J3J4J5M1RWXY/LB1D1 |
Departure
| Time | 2026-05-03 23:39 |
|---|---|
| Airport | Seattle–Tacoma International Airport (KSEA) |
Arrival
| Time | N/A |
|---|---|
| Airport | Memphis International Airport (KMEM) |
| Time | Latitude | Longitude | Altitude | Speed | Heading |
|---|---|---|---|---|---|
| 2026-05-03 22:51 | 47.46098 | -122.30271 | 398 ft | 0 kts | 181° |
| 2026-05-03 23:26 | 47.46107 | -122.30270 | 395 ft | 4 kts | 178° |
| 2026-05-03 23:26 | 47.46133 | -122.30273 | 398 ft | 4 kts | 179° |
| 2026-05-03 23:26 | 47.46158 | -122.30272 | 397 ft | 3 kts | 166° |
| 2026-05-03 23:26 | 47.46179 | -122.30279 | 397 ft | 4 kts | 172° |
| 2026-05-03 23:27 | 47.46205 | -122.30279 | 396 ft | 4 kts | 198° |
| 2026-05-03 23:27 | 47.46216 | -122.30273 | 392 ft | 1 kts | 208° |
| 2026-05-03 23:32 | 47.46206 | -122.30287 | 395 ft | 6 kts | 228° |
| 2026-05-03 23:32 | 47.46196 | -122.30354 | 398 ft | 8 kts | 269° |
| 2026-05-03 23:33 | 47.46196 | -122.30449 | 398 ft | 10 kts | 270° |
| 2026-05-03 23:33 | 47.46192 | -122.30566 | 396 ft | 12 kts | 251° |
| 2026-05-03 23:33 | 47.46117 | -122.30617 | 398 ft | 14 kts | 182° |
| 2026-05-03 23:33 | 47.45978 | -122.30619 | 398 ft | 22 kts | 180° |
| 2026-05-03 23:34 | 47.45815 | -122.30620 | 395 ft | 25 kts | 180° |
| 2026-05-03 23:34 | 47.45637 | -122.30621 | 396 ft | 27 kts | 180° |
| 2026-05-03 23:34 | 47.45446 | -122.30623 | 396 ft | 28 kts | 180° |
| 2026-05-03 23:34 | 47.45244 | -122.30624 | 396 ft | 30 kts | 181° |
| 2026-05-03 23:35 | 47.45031 | -122.30626 | 397 ft | 31 kts | 180° |
| 2026-05-03 23:35 | 47.44815 | -122.30628 | 397 ft | 25 kts | 180° |
| 2026-05-03 23:35 | 47.44642 | -122.30629 | 397 ft | 26 kts | 180° |
| 2026-05-03 23:35 | 47.44456 | -122.30632 | 395 ft | 28 kts | 181° |
| 2026-05-03 23:36 | 47.44259 | -122.30634 | 398 ft | 29 kts | 180° |
| 2026-05-03 23:36 | 47.44099 | -122.30635 | 397 ft | 23 kts | 180° |
| 2026-05-03 23:36 | 47.43929 | -122.30637 | 397 ft | 26 kts | 179° |
| 2026-05-03 23:36 | 47.43771 | -122.30638 | 397 ft | 21 kts | 181° |
| 2026-05-03 23:37 | 47.43618 | -122.30612 | 397 ft | 23 kts | 156° |
| 2026-05-03 23:37 | 47.43469 | -122.30559 | 398 ft | 23 kts | 180° |
| 2026-05-03 23:37 | 47.43323 | -122.30562 | 394 ft | 20 kts | 181° |
| 2026-05-03 23:37 | 47.43206 | -122.30588 | 394 ft | 17 kts | 212° |
| 2026-05-03 23:38 | 47.43171 | -122.30724 | 396 ft | 8 kts | 269° |
| 2026-05-03 23:38 | 47.43177 | -122.30794 | 395 ft | 5 kts | 309° |
| 2026-05-03 23:38 | 47.43232 | -122.30806 | 395 ft | 22 kts | 357° |
| 2026-05-03 23:38 | 47.43661 | -122.30803 | 398 ft | 112 kts | 0° |
| 2026-05-03 23:39 | 47.44708 | -122.30783 | 656 ft | 173 kts | 1° |
| 2026-05-03 23:39 | 47.45962 | -122.30746 | 1685 ft | 184 kts | 359° |
| 2026-05-03 23:39 | 47.47257 | -122.30834 | 2755 ft | 196 kts | 356° |
| 2026-05-03 23:39 | 47.48699 | -122.31019 | 3633 ft | 220 kts | 355° |
| 2026-05-03 23:40 | 47.50325 | -122.31201 | 4455 ft | 247 kts | 356° |
| 2026-05-03 23:40 | 47.52092 | -122.30965 | 5424 ft | 265 kts | 17° |
| 2026-05-03 23:40 | 47.53640 | -122.29417 | 6579 ft | 282 kts | 50° |
| 2026-05-03 23:40 | 47.54418 | -122.26700 | 7717 ft | 295 kts | 83° |
| 2026-05-03 23:41 | 47.54191 | -122.23678 | 9150 ft | 298 kts | 108° |
| 2026-05-03 23:41 | 47.53375 | -122.20891 | 10413 ft | 298 kts | 114° |
| 2026-05-03 23:41 | 47.52498 | -122.17988 | 11247 ft | 322 kts | 113° |
| 2026-05-03 23:41 | 47.51616 | -122.14771 | 11960 ft | 353 kts | 109° |
| 2026-05-03 23:42 | 47.50805 | -122.11209 | 12892 ft | 374 kts | 106° |
| 2026-05-03 23:42 | 47.50048 | -122.07475 | 14214 ft | 381 kts | 105° |
| 2026-05-03 23:42 | 47.49300 | -122.03665 | 15475 ft | 391 kts | 104° |
| 2026-05-03 23:42 | 47.48531 | -121.99765 | 16671 ft | 400 kts | 104° |
| 2026-05-03 23:43 | 47.47741 | -121.95775 | 17919 ft | 408 kts | 105° |
| 2026-05-03 23:43 | 47.46936 | -121.91728 | 19024 ft | 414 kts | 105° |
| 2026-05-03 23:43 | 47.46115 | -121.87614 | 20128 ft | 420 kts | 105° |
| 2026-05-03 23:43 | 47.45282 | -121.83448 | 21221 ft | 426 kts | 105° |
| 2026-05-03 23:44 | 47.44431 | -121.79214 | 22235 ft | 434 kts | 104° |
| 2026-05-03 23:44 | 47.43603 | -121.74886 | 23257 ft | 441 kts | 101° |
| 2026-05-03 23:44 | 47.43051 | -121.70413 | 24170 ft | 445 kts | 95° |
| 2026-05-03 23:44 | 47.42820 | -121.65840 | 25021 ft | 447 kts | 89° |
| 2026-05-03 23:45 | 47.42765 | -121.61250 | 25720 ft | 450 kts | 89° |
| 2026-05-03 23:45 | 47.42725 | -121.56607 | 26304 ft | 455 kts | 88° |
| 2026-05-03 23:45 | 47.42685 | -121.51914 | 26904 ft | 459 kts | 89° |
| 2026-05-03 23:45 | 47.42635 | -121.47184 | 27547 ft | 463 kts | 89° |
| 2026-05-03 23:46 | 47.42575 | -121.42416 | 28157 ft | 466 kts | 89° |
| 2026-05-03 23:46 | 47.42506 | -121.37616 | 28757 ft | 470 kts | 89° |
| 2026-05-03 23:46 | 47.42431 | -121.32777 | 29291 ft | 473 kts | 89° |
| 2026-05-03 23:46 | 47.42351 | -121.27908 | 29788 ft | 477 kts | 89° |
| 2026-05-03 23:47 | 47.42268 | -121.22991 | 30232 ft | 480 kts | 89° |
| 2026-05-03 23:47 | 47.42181 | -121.18052 | 30665 ft | 482 kts | 89° |
| 2026-05-03 23:47 | 47.42092 | -121.13098 | 31072 ft | 484 kts | 89° |
| 2026-05-03 23:47 | 47.42002 | -121.08121 | 31480 ft | 485 kts | 89° |
| 2026-05-03 23:48 | 47.41911 | -121.03213 | 31972 ft | 484 kts | 89° |
| 2026-05-03 23:48 | 47.41817 | -120.98267 | 32563 ft | 481 kts | 89° |
| 2026-05-03 23:48 | 47.41721 | -120.93349 | 33147 ft | 478 kts | 89° |
| 2026-05-03 23:48 | 47.41624 | -120.88459 | 33697 ft | 476 kts | 89° |
| 2026-05-03 23:49 | 47.41525 | -120.83591 | 34187 ft | 474 kts | 89° |
| 2026-05-03 23:49 | 47.41426 | -120.78736 | 34573 ft | 473 kts | 89° |
| 2026-05-03 23:49 | 47.41325 | -120.73890 | 34962 ft | 472 kts | 89° |
| 2026-05-03 23:49 | 47.41222 | -120.69052 | 35317 ft | 472 kts | 89° |
| 2026-05-03 23:50 | 47.41116 | -120.64210 | 35717 ft | 471 kts | 89° |
| 2026-05-03 23:50 | 47.41042 | -120.60948 | 36021 ft | 470 kts | 89° |
| 2026-05-03 23:50 | 47.40899 | -120.54583 | 36562 ft | 468 kts | 88° |
| 2026-05-03 23:50 | 47.40790 | -120.49786 | 36957 ft | 468 kts | 88° |
| 2026-05-03 23:51 | 47.40662 | -120.44984 | 37297 ft | 469 kts | 90° |
| 2026-05-03 23:51 | 47.40301 | -120.40183 | 37626 ft | 472 kts | 95° |
| 2026-05-03 23:51 | 47.39602 | -120.35437 | 38023 ft | 475 kts | 101° |
| 2026-05-03 23:51 | 47.38769 | -120.30728 | 38390 ft | 474 kts | 101° |
| 2026-05-03 23:52 | 47.37922 | -120.26016 | 38727 ft | 474 kts | 101° |
| 2026-05-03 23:52 | 47.37080 | -120.21320 | 38990 ft | 475 kts | 101° |
| 2026-05-03 23:52 | 47.36242 | -120.16603 | 39233 ft | 475 kts | 101° |
| 2026-05-03 23:52 | 47.35409 | -120.11877 | 39481 ft | 476 kts | 101° |
| 2026-05-03 23:53 | 47.34580 | -120.07150 | 39713 ft | 476 kts | 101° |
| 2026-05-03 23:53 | 47.33753 | -120.02430 | 39943 ft | 477 kts | 101° |
| 2026-05-03 23:53 | 47.32924 | -119.97701 | 40177 ft | 477 kts | 101° |
| 2026-05-03 23:53 | 47.32089 | -119.92958 | 40429 ft | 477 kts | 101° |
| 2026-05-03 23:54 | 47.31254 | -119.88228 | 40659 ft | 478 kts | 101° |
| 2026-05-03 23:54 | 47.30414 | -119.83481 | 40827 ft | 480 kts | 101° |
| 2026-05-03 23:54 | 47.28721 | -119.73954 | 40904 ft | 481 kts | 101° |
| 2026-05-03 23:55 | 47.27021 | -119.64455 | 40911 ft | 478 kts | 101° |
| 2026-05-03 23:55 | 47.25329 | -119.55037 | 40918 ft | 476 kts | 101° |
| 2026-05-03 23:56 | 47.23633 | -119.45644 | 40916 ft | 475 kts | 101° |
| 2026-05-03 23:56 | 47.21929 | -119.36248 | 40916 ft | 475 kts | 102° |
| 2026-05-03 23:57 | 47.19629 | -119.27083 | 40921 ft | 482 kts | 113° |
| 2026-05-03 23:57 | 47.16572 | -119.18295 | 40921 ft | 484 kts | 114° |
| 2026-05-03 23:58 | 47.13471 | -119.09497 | 40911 ft | 486 kts | 114° |
| 2026-05-03 23:58 | 47.10383 | -119.00660 | 40896 ft | 487 kts | 114° |
| 2026-05-03 23:59 | 47.07304 | -118.91806 | 40905 ft | 487 kts | 114° |
| 2026-05-03 23:59 | 47.04240 | -118.83009 | 40893 ft | 487 kts | 114° |
| 2026-05-04 00:00 | 47.01151 | -118.74172 | 40896 ft | 487 kts | 114° |
| 2026-05-04 00:00 | 46.98064 | -118.65374 | 40893 ft | 486 kts | 114° |
| 2026-05-04 00:01 | 46.94964 | -118.56571 | 40904 ft | 485 kts | 114° |
| 2026-05-04 00:01 | 46.91867 | -118.47803 | 40898 ft | 485 kts | 114° |
| 2026-05-04 00:02 | 46.88763 | -118.39046 | 40895 ft | 485 kts | 114° |
| 2026-05-04 00:02 | 46.85657 | -118.30312 | 40879 ft | 484 kts | 114° |
| 2026-05-04 00:03 | 46.82545 | -118.21590 | 40896 ft | 484 kts | 114° |
| 2026-05-04 00:03 | 46.79429 | -118.12885 | 40878 ft | 484 kts | 115° |
| 2026-05-04 00:04 | 46.76304 | -118.04185 | 40875 ft | 484 kts | 115° |
| 2026-05-04 00:04 | 46.73176 | -117.95502 | 40880 ft | 484 kts | 115° |
| 2026-05-04 00:05 | 46.70041 | -117.86830 | 40903 ft | 484 kts | 115° |
| 2026-05-04 00:05 | 46.66898 | -117.78165 | 40917 ft | 484 kts | 115° |
| 2026-05-04 00:06 | 46.63771 | -117.69571 | 40914 ft | 484 kts | 115° |
| 2026-05-04 00:06 | 46.60613 | -117.60918 | 40932 ft | 484 kts | 115° |
| 2026-05-04 00:07 | 46.57452 | -117.52285 | 40923 ft | 484 kts | 115° |
| 2026-05-04 00:07 | 46.54285 | -117.43665 | 40937 ft | 484 kts | 115° |
| 2026-05-04 00:08 | 46.51106 | -117.35039 | 40935 ft | 483 kts | 115° |
| 2026-05-04 00:08 | 46.47930 | -117.26449 | 40915 ft | 483 kts | 115° |
| 2026-05-04 00:09 | 46.44748 | -117.17873 | 40916 ft | 483 kts | 115° |
| 2026-05-04 00:09 | 46.41559 | -117.09301 | 40904 ft | 483 kts | 116° |
| 2026-05-04 00:10 | 46.38364 | -117.00740 | 40905 ft | 483 kts | 116° |
| 2026-05-04 00:10 | 46.35161 | -116.92187 | 40896 ft | 483 kts | 116° |
| 2026-05-04 00:11 | 46.31952 | -116.83645 | 40895 ft | 483 kts | 116° |
| 2026-05-04 00:11 | 46.28739 | -116.75117 | 40896 ft | 483 kts | 116° |
| 2026-05-04 00:12 | 46.25536 | -116.66644 | 40884 ft | 483 kts | 116° |
| 2026-05-04 00:12 | 46.22287 | -116.58077 | 40877 ft | 483 kts | 116° |
| 2026-05-04 00:13 | 46.19077 | -116.49637 | 40870 ft | 483 kts | 116° |
| 2026-05-04 00:13 | 46.15840 | -116.41153 | 40880 ft | 482 kts | 117° |
| 2026-05-04 00:14 | 46.12598 | -116.32681 | 40879 ft | 483 kts | 117° |
| 2026-05-04 00:14 | 46.09346 | -116.24211 | 40941 ft | 483 kts | 117° |
| 2026-05-04 00:15 | 46.06090 | -116.15755 | 40960 ft | 483 kts | 117° |
| 2026-05-04 00:15 | 46.02824 | -116.07295 | 40972 ft | 484 kts | 117° |
| 2026-05-04 00:16 | 45.99551 | -115.98834 | 40961 ft | 484 kts | 116° |
| 2026-05-04 00:16 | 45.96470 | -115.90227 | 40951 ft | 484 kts | 114° |
| 2026-05-04 00:17 | 45.93492 | -115.81533 | 40923 ft | 485 kts | 114° |
| 2026-05-04 00:17 | 45.90492 | -115.72860 | 40898 ft | 485 kts | 115° |
| 2026-05-04 00:18 | 45.87454 | -115.64200 | 40874 ft | 486 kts | 115° |
| 2026-05-04 00:18 | 45.84399 | -115.55559 | 40872 ft | 486 kts | 115° |
| 2026-05-04 00:19 | 45.81358 | -115.46990 | 40858 ft | 485 kts | 115° |
| 2026-05-04 00:19 | 45.78292 | -115.38374 | 40863 ft | 486 kts | 115° |
| 2026-05-04 00:20 | 45.75220 | -115.29755 | 40863 ft | 486 kts | 116° |
| 2026-05-04 00:20 | 45.72134 | -115.21137 | 40863 ft | 487 kts | 115° |
| 2026-05-04 00:21 | 45.69558 | -115.13963 | 40869 ft | 488 kts | 115° |
| 2026-05-04 00:21 | 45.66447 | -115.05323 | 40868 ft | 489 kts | 115° |
| 2026-05-04 00:22 | 45.63329 | -114.96683 | 40880 ft | 490 kts | 115° |
| 2026-05-04 00:22 | 45.60192 | -114.88016 | 40874 ft | 492 kts | 116° |
| 2026-05-04 00:23 | 45.57028 | -114.79310 | 40873 ft | 491 kts | 116° |
| 2026-05-04 00:23 | 45.53882 | -114.70684 | 40876 ft | 489 kts | 116° |
| 2026-05-04 00:24 | 45.50737 | -114.62088 | 40879 ft | 488 kts | 116° |
| 2026-05-04 00:24 | 45.47593 | -114.53520 | 40873 ft | 488 kts | 117° |
| 2026-05-04 00:25 | 45.44466 | -114.45028 | 40870 ft | 487 kts | 117° |
| 2026-05-04 00:25 | 45.41314 | -114.36491 | 40881 ft | 487 kts | 117° |
| 2026-05-04 00:26 | 45.38156 | -114.27966 | 40866 ft | 487 kts | 117° |
| 2026-05-04 00:26 | 45.34991 | -114.19446 | 40869 ft | 487 kts | 117° |
| 2026-05-04 00:27 | 45.31816 | -114.10930 | 40869 ft | 488 kts | 118° |
| 2026-05-04 00:27 | 45.28626 | -114.02396 | 40863 ft | 489 kts | 118° |
| 2026-05-04 00:28 | 45.25424 | -113.93858 | 40869 ft | 490 kts | 118° |
| 2026-05-04 00:28 | 45.22207 | -113.85315 | 40857 ft | 491 kts | 118° |
| 2026-05-04 00:29 | 45.18984 | -113.76768 | 40862 ft | 492 kts | 118° |
| 2026-05-04 00:29 | 45.15743 | -113.68204 | 40873 ft | 494 kts | 118° |
| 2026-05-04 00:30 | 45.12485 | -113.59626 | 40881 ft | 495 kts | 118° |
| 2026-05-04 00:30 | 45.09212 | -113.51034 | 40869 ft | 496 kts | 118° |
| 2026-05-04 00:31 | 45.05940 | -113.42474 | 40866 ft | 494 kts | 118° |
| 2026-05-04 00:31 | 45.02671 | -113.33946 | 40867 ft | 492 kts | 118° |
| 2026-05-04 00:32 | 44.99410 | -113.25465 | 40864 ft | 490 kts | 118° |
| 2026-05-04 00:32 | 44.96152 | -113.17019 | 40872 ft | 489 kts | 118° |
| 2026-05-04 00:33 | 44.91279 | -113.04428 | 40882 ft | 490 kts | 118° |
| 2026-05-04 00:34 | 44.88001 | -112.95991 | 40882 ft | 491 kts | 119° |
| 2026-05-04 00:34 | 44.84711 | -112.87553 | 40881 ft | 492 kts | 119° |
| 2026-05-04 00:35 | 44.81410 | -112.79111 | 40882 ft | 492 kts | 119° |
| 2026-05-04 00:35 | 44.78105 | -112.70680 | 40896 ft | 492 kts | 119° |
| 2026-05-04 00:36 | 44.74784 | -112.62238 | 40893 ft | 493 kts | 119° |
| 2026-05-04 00:36 | 44.71459 | -112.53808 | 40894 ft | 493 kts | 119° |
| 2026-05-04 00:37 | 44.68125 | -112.45382 | 40907 ft | 493 kts | 119° |
| 2026-05-04 00:37 | 44.64783 | -112.36961 | 40904 ft | 494 kts | 119° |
| 2026-05-04 00:38 | 44.61429 | -112.28537 | 40906 ft | 494 kts | 119° |
| 2026-05-04 00:38 | 44.58073 | -112.20128 | 40911 ft | 494 kts | 119° |
| 2026-05-04 00:39 | 44.54708 | -112.11722 | 40904 ft | 495 kts | 119° |
| 2026-05-04 00:39 | 44.51337 | -112.03324 | 40912 ft | 494 kts | 119° |
| 2026-05-04 00:40 | 44.47731 | -111.95130 | 40916 ft | 494 kts | 124° |
| 2026-05-04 00:40 | 44.43855 | -111.87204 | 40921 ft | 494 kts | 125° |
| 2026-05-04 00:41 | 44.39957 | -111.79278 | 40903 ft | 495 kts | 125° |
| 2026-05-04 00:41 | 44.36071 | -111.71335 | 40909 ft | 495 kts | 124° |
| 2026-05-04 00:42 | 44.32190 | -111.63389 | 40909 ft | 495 kts | 124° |
| 2026-05-04 00:42 | 44.28304 | -111.55449 | 40895 ft | 496 kts | 125° |
| 2026-05-04 00:43 | 44.24430 | -111.47559 | 40911 ft | 496 kts | 125° |
| 2026-05-04 00:43 | 44.20529 | -111.39637 | 40916 ft | 496 kts | 125° |
| 2026-05-04 00:44 | 44.16617 | -111.31714 | 40915 ft | 496 kts | 125° |
| 2026-05-04 00:44 | 44.12697 | -111.23799 | 40920 ft | 496 kts | 125° |
| 2026-05-04 00:45 | 44.08771 | -111.15892 | 40948 ft | 497 kts | 125° |
| 2026-05-04 00:45 | 44.04832 | -111.07981 | 40961 ft | 497 kts | 125° |
| 2026-05-04 00:46 | 44.00888 | -111.00081 | 40975 ft | 497 kts | 125° |
| 2026-05-04 00:46 | 43.96939 | -110.92190 | 40988 ft | 498 kts | 126° |
| 2026-05-04 00:47 | 43.92981 | -110.84305 | 40992 ft | 498 kts | 126° |
| 2026-05-04 00:47 | 43.89014 | -110.76424 | 40993 ft | 498 kts | 126° |
| 2026-05-04 00:48 | 43.85043 | -110.68555 | 40987 ft | 499 kts | 126° |
| 2026-05-04 00:48 | 43.81063 | -110.60688 | 40978 ft | 499 kts | 126° |
| 2026-05-04 00:49 | 43.77077 | -110.52832 | 40987 ft | 499 kts | 126° |
| 2026-05-04 00:49 | 43.73079 | -110.44972 | 40973 ft | 500 kts | 126° |
| 2026-05-04 00:50 | 43.69101 | -110.37173 | 40972 ft | 500 kts | 126° |
| 2026-05-04 00:50 | 43.65062 | -110.29276 | 40979 ft | 500 kts | 126° |
| 2026-05-04 00:51 | 43.61040 | -110.21431 | 40973 ft | 500 kts | 126° |
| 2026-05-04 00:51 | 43.57016 | -110.13605 | 40972 ft | 501 kts | 126° |
| 2026-05-04 00:52 | 43.52982 | -110.05773 | 40987 ft | 501 kts | 126° |
| 2026-05-04 00:52 | 43.49165 | -109.97811 | 40997 ft | 503 kts | 119° |
| 2026-05-04 00:53 | 43.46097 | -109.89148 | 40998 ft | 504 kts | 116° |
| 2026-05-04 00:53 | 43.43101 | -109.80422 | 41004 ft | 505 kts | 116° |
| 2026-05-04 00:54 | 43.40071 | -109.71711 | 41005 ft | 506 kts | 116° |
| 2026-05-04 00:54 | 43.37001 | -109.63000 | 40954 ft | 506 kts | 116° |
| 2026-05-04 00:55 | 43.33919 | -109.54307 | 40919 ft | 507 kts | 117° |
| 2026-05-04 00:55 | 43.32373 | -109.49957 | 40915 ft | 507 kts | 117° |
| 2026-05-04 00:56 | 43.28064 | -109.37858 | 40881 ft | 506 kts | 117° |
| 2026-05-04 00:56 | 43.24966 | -109.29188 | 40884 ft | 506 kts | 117° |
| 2026-05-04 00:57 | 43.21859 | -109.20521 | 40862 ft | 506 kts | 117° |
| 2026-05-04 00:57 | 43.18743 | -109.11858 | 40830 ft | 507 kts | 117° |
| 2026-05-04 00:58 | 43.15622 | -109.03203 | 40825 ft | 507 kts | 117° |
| 2026-05-04 00:58 | 43.12490 | -108.94550 | 40798 ft | 507 kts | 117° |
| 2026-05-04 00:59 | 43.09354 | -108.85910 | 40798 ft | 507 kts | 117° |
| 2026-05-04 00:59 | 43.06211 | -108.77277 | 40789 ft | 507 kts | 117° |
| 2026-05-04 01:00 | 43.03059 | -108.68647 | 40878 ft | 507 kts | 117° |
| 2026-05-04 01:00 | 42.99900 | -108.60026 | 40909 ft | 508 kts | 117° |
| 2026-05-04 01:01 | 42.96752 | -108.51459 | 40921 ft | 508 kts | 117° |
| 2026-05-04 01:01 | 42.93575 | -108.42840 | 40906 ft | 509 kts | 117° |
| 2026-05-04 01:02 | 42.90386 | -108.34215 | 40873 ft | 509 kts | 117° |
| 2026-05-04 01:02 | 42.87188 | -108.25594 | 40802 ft | 510 kts | 118° |
| 2026-05-04 01:03 | 42.83978 | -108.16965 | 40801 ft | 511 kts | 118° |
| 2026-05-04 01:03 | 42.80760 | -108.08340 | 40809 ft | 511 kts | 118° |
| 2026-05-04 01:04 | 42.77530 | -107.99710 | 40812 ft | 511 kts | 118° |
| 2026-05-04 01:04 | 42.74294 | -107.91090 | 40828 ft | 512 kts | 118° |
| 2026-05-04 01:05 | 42.71047 | -107.82468 | 40837 ft | 512 kts | 118° |
| 2026-05-04 01:05 | 42.67793 | -107.73852 | 40860 ft | 512 kts | 118° |
| 2026-05-04 01:06 | 42.64531 | -107.65244 | 40839 ft | 513 kts | 118° |
| 2026-05-04 01:06 | 42.61262 | -107.56642 | 40854 ft | 513 kts | 118° |
| 2026-05-04 01:07 | 42.57983 | -107.48039 | 40858 ft | 514 kts | 118° |
| 2026-05-04 01:07 | 42.54714 | -107.39488 | 40867 ft | 514 kts | 118° |
| 2026-05-04 01:08 | 42.51419 | -107.30895 | 40863 ft | 514 kts | 118° |
| 2026-05-04 01:08 | 42.48112 | -107.22293 | 40851 ft | 515 kts | 119° |
| 2026-05-04 01:09 | 42.44796 | -107.13701 | 40867 ft | 515 kts | 119° |
| 2026-05-04 01:09 | 42.41470 | -107.05104 | 40859 ft | 516 kts | 119° |
| 2026-05-04 01:10 | 42.38131 | -106.96501 | 40866 ft | 517 kts | 119° |
| 2026-05-04 01:10 | 42.34783 | -106.87900 | 40860 ft | 517 kts | 119° |
| 2026-05-04 01:11 | 42.31424 | -106.79295 | 40862 ft | 518 kts | 119° |
| 2026-05-04 01:11 | 42.28058 | -106.70697 | 40871 ft | 518 kts | 119° |
| 2026-05-04 01:12 | 42.24683 | -106.62104 | 40869 ft | 518 kts | 119° |
| 2026-05-04 01:12 | 42.21298 | -106.53510 | 40853 ft | 519 kts | 119° |
| 2026-05-04 01:13 | 42.17907 | -106.44924 | 40864 ft | 518 kts | 119° |
| 2026-05-04 01:13 | 42.14512 | -106.36355 | 40864 ft | 519 kts | 120° |
| 2026-05-04 01:14 | 42.11103 | -106.27779 | 40867 ft | 519 kts | 119° |
| 2026-05-04 01:14 | 42.07692 | -106.19218 | 40860 ft | 519 kts | 119° |
| 2026-05-04 01:15 | 42.04274 | -106.10663 | 40854 ft | 519 kts | 120° |
| 2026-05-04 01:15 | 42.00848 | -106.02114 | 40866 ft | 519 kts | 120° |
| 2026-05-04 01:16 | 41.97107 | -105.93825 | 40864 ft | 519 kts | 125° |
| 2026-05-04 01:16 | 41.93128 | -105.85730 | 40864 ft | 519 kts | 125° |
| 2026-05-04 01:17 | 41.89166 | -105.77692 | 40848 ft | 520 kts | 125° |
| 2026-05-04 01:17 | 41.85193 | -105.69578 | 40853 ft | 520 kts | 125° |
| 2026-05-04 01:18 | 41.81223 | -105.61460 | 40873 ft | 521 kts | 125° |
| 2026-05-04 01:18 | 41.77240 | -105.53335 | 40862 ft | 521 kts | 125° |
| 2026-05-04 01:19 | 41.73252 | -105.45223 | 40870 ft | 522 kts | 125° |
| 2026-05-04 01:19 | 41.69255 | -105.37121 | 40878 ft | 522 kts | 125° |
| 2026-05-04 01:20 | 41.65252 | -105.29025 | 40880 ft | 522 kts | 125° |
| 2026-05-04 01:20 | 41.61243 | -105.20941 | 40893 ft | 522 kts | 125° |
| 2026-05-04 01:21 | 41.57225 | -105.12859 | 40876 ft | 522 kts | 125° |
| 2026-05-04 01:21 | 41.53204 | -105.04793 | 40877 ft | 522 kts | 125° |
| 2026-05-04 01:22 | 41.49173 | -104.96727 | 40883 ft | 522 kts | 125° |
| 2026-05-04 01:22 | 41.45136 | -104.88670 | 40902 ft | 523 kts | 125° |
| 2026-05-04 01:23 | 41.41087 | -104.80613 | 40903 ft | 523 kts | 126° |
| 2026-05-04 01:23 | 41.37031 | -104.72560 | 40921 ft | 523 kts | 126° |
| 2026-05-04 01:24 | 41.32994 | -104.64569 | 40918 ft | 524 kts | 126° |
| 2026-05-04 01:24 | 41.28925 | -104.56533 | 40912 ft | 524 kts | 126° |
| 2026-05-04 01:25 | 41.24847 | -104.48501 | 40875 ft | 524 kts | 126° |
| 2026-05-04 01:25 | 41.20761 | -104.40475 | 40864 ft | 524 kts | 126° |
| 2026-05-04 01:26 | 41.16669 | -104.32457 | 40865 ft | 525 kts | 126° |
| 2026-05-04 01:26 | 41.12573 | -104.24452 | 40880 ft | 525 kts | 126° |
| 2026-05-04 01:27 | 41.08465 | -104.16443 | 40875 ft | 525 kts | 126° |
| 2026-05-04 01:27 | 41.04358 | -104.08456 | 40915 ft | 525 kts | 126° |
| 2026-05-04 01:28 | 41.00230 | -104.00449 | 40926 ft | 526 kts | 126° |
| 2026-05-04 01:28 | 40.96207 | -103.92373 | 40893 ft | 526 kts | 124° |
| 2026-05-04 01:29 | 40.92275 | -103.84193 | 40915 ft | 527 kts | 124° |
| 2026-05-04 01:29 | 40.88339 | -103.76030 | 40864 ft | 527 kts | 124° |
| 2026-05-04 01:30 | 40.84370 | -103.67881 | 40842 ft | 527 kts | 124° |
| 2026-05-04 01:30 | 40.80389 | -103.59758 | 40848 ft | 527 kts | 124° |
| 2026-05-04 01:31 | 40.76401 | -103.51643 | 40831 ft | 527 kts | 124° |
| 2026-05-04 01:31 | 40.72431 | -103.43581 | 40870 ft | 527 kts | 124° |
| 2026-05-04 01:32 | 40.68430 | -103.35476 | 40878 ft | 528 kts | 124° |
| 2026-05-04 01:32 | 40.64420 | -103.27373 | 40879 ft | 528 kts | 124° |
| 2026-05-04 01:33 | 40.60404 | -103.19278 | 40879 ft | 528 kts | 124° |
| 2026-05-04 01:33 | 40.56381 | -103.11192 | 40832 ft | 529 kts | 125° |
| 2026-05-04 01:34 | 40.52344 | -103.03100 | 40836 ft | 529 kts | 125° |
| 2026-05-04 01:34 | 40.48305 | -102.95024 | 40834 ft | 529 kts | 125° |
| 2026-05-04 01:35 | 40.44254 | -102.86943 | 40842 ft | 529 kts | 125° |
| 2026-05-04 01:35 | 40.40201 | -102.78880 | 40829 ft | 529 kts | 125° |
| 2026-05-04 01:36 | 40.36145 | -102.70831 | 40852 ft | 529 kts | 125° |
| 2026-05-04 01:36 | 40.32083 | -102.62792 | 40848 ft | 529 kts | 125° |
| 2026-05-04 01:37 | 40.28018 | -102.54768 | 40852 ft | 528 kts | 125° |
| 2026-05-04 01:37 | 40.23949 | -102.46757 | 40855 ft | 528 kts | 125° |
| 2026-05-04 01:38 | 40.19878 | -102.38760 | 40856 ft | 528 kts | 126° |
| 2026-05-04 01:38 | 40.15797 | -102.30766 | 40856 ft | 528 kts | 126° |
| 2026-05-04 01:39 | 40.11710 | -102.22780 | 40858 ft | 529 kts | 126° |
| 2026-05-04 01:39 | 40.07618 | -102.14804 | 40852 ft | 529 kts | 126° |
| 2026-05-04 01:40 | 40.03518 | -102.06827 | 40850 ft | 529 kts | 126° |
| 2026-05-04 01:40 | 40.00096 | -102.00205 | 40863 ft | 529 kts | 127° |
| 2026-05-04 01:41 | 39.95679 | -101.92562 | 40863 ft | 528 kts | 130° |
| 2026-05-04 01:41 | 39.91146 | -101.85034 | 40864 ft | 528 kts | 130° |
| 2026-05-04 01:42 | 39.86623 | -101.77511 | 40843 ft | 528 kts | 130° |
| 2026-05-04 01:42 | 39.82118 | -101.69977 | 40871 ft | 528 kts | 130° |
| 2026-05-04 01:43 | 39.77608 | -101.62438 | 40876 ft | 529 kts | 130° |
| 2026-05-04 01:43 | 39.73084 | -101.54895 | 40857 ft | 530 kts | 130° |
| 2026-05-04 01:44 | 39.68546 | -101.47349 | 40845 ft | 530 kts | 130° |
| 2026-05-04 01:44 | 39.64003 | -101.39813 | 40817 ft | 530 kts | 130° |
| 2026-05-04 01:45 | 39.59455 | -101.32288 | 40824 ft | 530 kts | 130° |
| 2026-05-04 01:45 | 39.52621 | -101.21015 | 40859 ft | 530 kts | 130° |
| 2026-05-04 01:46 | 39.48058 | -101.13507 | 40850 ft | 530 kts | 131° |
| 2026-05-04 01:46 | 39.43494 | -101.06017 | 40863 ft | 530 kts | 131° |
| 2026-05-04 01:47 | 39.38959 | -100.98593 | 40869 ft | 530 kts | 131° |
| 2026-05-04 01:47 | 39.34389 | -100.91125 | 40837 ft | 530 kts | 131° |
| 2026-05-04 01:48 | 39.29845 | -100.83631 | 40821 ft | 530 kts | 129° |
| 2026-05-04 01:48 | 39.25520 | -100.75921 | 40857 ft | 531 kts | 128° |
| 2026-05-04 01:49 | 39.21242 | -100.68156 | 40853 ft | 531 kts | 128° |
| 2026-05-04 01:49 | 39.16922 | -100.60421 | 40851 ft | 531 kts | 128° |
| 2026-05-04 01:50 | 39.12574 | -100.52722 | 40841 ft | 532 kts | 129° |
| 2026-05-04 01:50 | 39.08205 | -100.45018 | 40813 ft | 533 kts | 129° |
| 2026-05-04 01:51 | 39.03826 | -100.37308 | 40824 ft | 534 kts | 129° |
| 2026-05-04 01:51 | 38.99437 | -100.29594 | 40805 ft | 535 kts | 129° |
| 2026-05-04 01:52 | 38.95039 | -100.21881 | 40819 ft | 535 kts | 129° |
| 2026-05-04 01:52 | 38.90628 | -100.14164 | 40789 ft | 536 kts | 129° |
| 2026-05-04 01:53 | 38.86212 | -100.06456 | 40811 ft | 536 kts | 129° |
| 2026-05-04 01:53 | 38.81780 | -99.98741 | 40808 ft | 537 kts | 129° |
| 2026-05-04 01:54 | 38.77349 | -99.91044 | 40805 ft | 537 kts | 129° |
| 2026-05-04 01:54 | 38.72906 | -99.83344 | 40820 ft | 537 kts | 129° |
| 2026-05-04 01:55 | 38.68455 | -99.75647 | 40798 ft | 537 kts | 129° |
| 2026-05-04 01:55 | 38.64012 | -99.67983 | 40792 ft | 536 kts | 129° |
| 2026-05-04 01:56 | 38.59922 | -99.60068 | 40791 ft | 539 kts | 120° |
| 2026-05-04 01:56 | 38.56418 | -99.51601 | 40791 ft | 539 kts | 119° |
| 2026-05-04 01:57 | 38.52935 | -99.43114 | 40799 ft | 539 kts | 120° |
| 2026-05-04 01:57 | 38.49411 | -99.34667 | 40778 ft | 539 kts | 120° |
| 2026-05-04 01:58 | 38.45861 | -99.26249 | 40789 ft | 538 kts | 120° |
| 2026-05-04 01:58 | 38.42304 | -99.17847 | 40797 ft | 539 kts | 120° |
| 2026-05-04 01:59 | 38.38741 | -99.09444 | 40797 ft | 539 kts | 120° |
| 2026-05-04 01:59 | 38.35170 | -99.01038 | 40819 ft | 539 kts | 120° |
| 2026-05-04 02:00 | 38.31595 | -98.92644 | 40807 ft | 539 kts | 120° |
| 2026-05-04 02:00 | 38.28024 | -98.84285 | 40810 ft | 539 kts | 120° |
| 2026-05-04 02:01 | 38.24434 | -98.75901 | 40809 ft | 539 kts | 120° |
| 2026-05-04 02:01 | 38.20836 | -98.67521 | 40814 ft | 540 kts | 120° |
| 2026-05-04 02:02 | 38.17230 | -98.59144 | 40803 ft | 540 kts | 120° |
| 2026-05-04 02:02 | 38.13618 | -98.50773 | 40803 ft | 541 kts | 120° |
| 2026-05-04 02:03 | 38.09995 | -98.42399 | 40804 ft | 541 kts | 120° |
| 2026-05-04 02:03 | 38.06194 | -98.34183 | 40816 ft | 539 kts | 124° |
| 2026-05-04 02:04 | 38.02201 | -98.26130 | 40806 ft | 539 kts | 124° |
| 2026-05-04 02:04 | 37.98227 | -98.18154 | 40811 ft | 538 kts | 124° |
| 2026-05-04 02:05 | 37.94249 | -98.10116 | 40802 ft | 538 kts | 124° |
| 2026-05-04 02:05 | 37.90281 | -98.02079 | 40783 ft | 538 kts | 124° |
| 2026-05-04 02:06 | 37.86313 | -97.94064 | 40817 ft | 537 kts | 124° |
| 2026-05-04 02:06 | 37.82338 | -97.86058 | 40819 ft | 538 kts | 124° |
| 2026-05-04 02:07 | 37.78353 | -97.78055 | 40813 ft | 538 kts | 124° |
| 2026-05-04 02:07 | 37.74359 | -97.70054 | 40827 ft | 538 kts | 124° |
| 2026-05-04 02:08 | 37.70363 | -97.62067 | 40797 ft | 538 kts | 124° |
| 2026-05-04 02:08 | 37.66360 | -97.54086 | 40843 ft | 538 kts | 124° |
| 2026-05-04 02:09 | 37.62351 | -97.46110 | 40843 ft | 539 kts | 124° |
| 2026-05-04 02:09 | 37.58327 | -97.38123 | 40842 ft | 539 kts | 124° |
| 2026-05-04 02:10 | 37.54303 | -97.30153 | 40836 ft | 539 kts | 124° |
| 2026-05-04 02:10 | 37.50495 | -97.22009 | 40841 ft | 541 kts | 117° |
| 2026-05-04 02:11 | 37.47207 | -97.13490 | 40837 ft | 541 kts | 116° |
| 2026-05-04 02:11 | 37.43954 | -97.04942 | 40853 ft | 541 kts | 116° |
| 2026-05-04 02:12 | 37.40665 | -96.96422 | 40869 ft | 542 kts | 117° |
| 2026-05-04 02:12 | 37.37340 | -96.87908 | 40871 ft | 542 kts | 117° |
| 2026-05-04 02:13 | 37.34002 | -96.79406 | 40881 ft | 542 kts | 117° |
| 2026-05-04 02:13 | 37.30662 | -96.70912 | 40875 ft | 542 kts | 117° |
| 2026-05-04 02:14 | 37.27316 | -96.62418 | 40867 ft | 542 kts | 117° |
| 2026-05-04 02:14 | 37.23968 | -96.53943 | 40884 ft | 542 kts | 117° |
| 2026-05-04 02:15 | 37.20638 | -96.45535 | 40897 ft | 542 kts | 117° |
| 2026-05-04 02:15 | 37.17274 | -96.37063 | 40890 ft | 543 kts | 117° |
| 2026-05-04 02:16 | 37.13902 | -96.28597 | 40890 ft | 543 kts | 117° |
| 2026-05-04 02:16 | 37.10525 | -96.20137 | 40890 ft | 543 kts | 117° |
| 2026-05-04 02:17 | 37.07141 | -96.11685 | 40872 ft | 543 kts | 117° |
| 2026-05-04 02:17 | 37.03753 | -96.03244 | 40898 ft | 542 kts | 117° |
| 2026-05-04 02:18 | 37.00358 | -95.94810 | 40889 ft | 543 kts | 117° |
| 2026-05-04 02:18 | 36.96957 | -95.86381 | 40895 ft | 543 kts | 117° |
| 2026-05-04 02:19 | 36.93551 | -95.77964 | 40894 ft | 543 kts | 118° |
| 2026-05-04 02:19 | 36.90138 | -95.69550 | 40910 ft | 543 kts | 118° |
| 2026-05-04 02:20 | 36.86718 | -95.61142 | 40901 ft | 543 kts | 118° |
| 2026-05-04 02:20 | 36.83295 | -95.52750 | 40912 ft | 542 kts | 118° |
| 2026-05-04 02:21 | 36.79867 | -95.44364 | 40906 ft | 543 kts | 118° |
| 2026-05-04 02:21 | 36.76430 | -95.35981 | 40913 ft | 543 kts | 118° |
| 2026-05-04 02:22 | 36.72982 | -95.27594 | 40929 ft | 544 kts | 118° |
| 2026-05-04 02:22 | 36.69530 | -95.19217 | 40929 ft | 543 kts | 118° |
| 2026-05-04 02:23 | 36.66075 | -95.10853 | 40941 ft | 543 kts | 118° |
| 2026-05-04 02:23 | 36.62615 | -95.02500 | 40927 ft | 542 kts | 118° |
| 2026-05-04 02:24 | 36.59150 | -94.94158 | 40963 ft | 543 kts | 118° |
| 2026-05-04 02:24 | 36.55676 | -94.85813 | 40950 ft | 543 kts | 118° |
| 2026-05-04 02:25 | 36.52195 | -94.77475 | 40959 ft | 543 kts | 118° |
| 2026-05-04 02:25 | 36.48710 | -94.69149 | 40963 ft | 543 kts | 118° |
| 2026-05-04 02:26 | 36.45247 | -94.60894 | 40979 ft | 543 kts | 118° |
| 2026-05-04 02:26 | 36.41755 | -94.52593 | 40989 ft | 542 kts | 118° |
| 2026-05-04 02:27 | 36.38261 | -94.44307 | 40993 ft | 542 kts | 118° |
| 2026-05-04 02:27 | 36.34759 | -94.36021 | 40991 ft | 542 kts | 118° |
| 2026-05-04 02:28 | 36.31254 | -94.27749 | 40991 ft | 542 kts | 118° |
| 2026-05-04 02:28 | 36.28336 | -94.20878 | 41004 ft | 542 kts | 118° |
| 2026-05-04 02:29 | 36.24852 | -94.12604 | 41005 ft | 542 kts | 115° |
| 2026-05-04 02:29 | 36.23657 | -94.08202 | 41012 ft | 538 kts | 101° |
| 2026-05-04 02:29 | 36.22907 | -94.03663 | 40981 ft | 538 kts | 99° |
| 2026-05-04 02:30 | 36.21554 | -93.94548 | 40997 ft | 539 kts | 99° |
| 2026-05-04 02:30 | 36.20101 | -93.85432 | 40994 ft | 540 kts | 100° |
| 2026-05-04 02:31 | 36.18546 | -93.76329 | 40971 ft | 541 kts | 101° |
| 2026-05-04 02:31 | 36.16967 | -93.67217 | 41000 ft | 541 kts | 101° |
| 2026-05-04 02:32 | 36.15394 | -93.58111 | 41002 ft | 541 kts | 101° |
| 2026-05-04 02:32 | 36.13821 | -93.49012 | 40999 ft | 541 kts | 101° |
| 2026-05-04 02:33 | 36.12237 | -93.39912 | 40994 ft | 541 kts | 101° |
| 2026-05-04 02:33 | 36.10639 | -93.30829 | 41002 ft | 541 kts | 101° |
| 2026-05-04 02:34 | 36.09042 | -93.21794 | 41014 ft | 541 kts | 101° |
| 2026-05-04 02:34 | 36.07424 | -93.12668 | 41003 ft | 541 kts | 101° |
| 2026-05-04 02:35 | 36.05809 | -93.03597 | 41030 ft | 540 kts | 101° |
| 2026-05-04 02:35 | 36.04187 | -92.94528 | 41001 ft | 540 kts | 101° |
| 2026-05-04 02:36 | 36.02557 | -92.85466 | 40988 ft | 540 kts | 101° |
| 2026-05-04 02:36 | 36.00925 | -92.76425 | 40997 ft | 539 kts | 101° |
| 2026-05-04 02:37 | 35.99286 | -92.67388 | 40986 ft | 539 kts | 101° |
| 2026-05-04 02:37 | 35.97641 | -92.58358 | 40995 ft | 539 kts | 101° |
| 2026-05-04 02:38 | 35.95988 | -92.49329 | 40995 ft | 539 kts | 101° |
| 2026-05-04 02:38 | 35.94329 | -92.40307 | 41007 ft | 539 kts | 102° |
| 2026-05-04 02:39 | 35.92663 | -92.31283 | 41004 ft | 539 kts | 102° |
| 2026-05-04 02:39 | 35.90985 | -92.22231 | 40219 ft | 550 kts | 102° |
| 2026-05-04 02:40 | 35.90129 | -92.17626 | 39303 ft | 551 kts | 101° |
| 2026-05-04 02:40 | 35.89381 | -92.13619 | 38429 ft | 552 kts | 101° |
| 2026-05-04 02:40 | 35.88753 | -92.10263 | 37545 ft | 552 kts | 101° |
| 2026-05-04 02:40 | 35.87890 | -92.05652 | 36435 ft | 551 kts | 102° |
| 2026-05-04 02:41 | 35.87028 | -92.01062 | 35255 ft | 550 kts | 102° |
| 2026-05-04 02:41 | 35.86174 | -91.96518 | 33929 ft | 553 kts | 102° |
| 2026-05-04 02:41 | 35.85310 | -91.91934 | 32966 ft | 544 kts | 102° |
| 2026-05-04 02:41 | 35.84459 | -91.87435 | 32130 ft | 535 kts | 102° |
| 2026-05-04 02:42 | 35.83621 | -91.83002 | 31287 ft | 527 kts | 102° |
| 2026-05-04 02:42 | 35.82793 | -91.78631 | 30504 ft | 520 kts | 102° |
| 2026-05-04 02:42 | 35.81968 | -91.74320 | 29667 ft | 514 kts | 103° |
| 2026-05-04 02:42 | 35.80880 | -91.70172 | 28807 ft | 506 kts | 112° |
| 2026-05-04 02:43 | 35.79442 | -91.66253 | 28042 ft | 498 kts | 116° |
| 2026-05-04 02:43 | 35.77929 | -91.62449 | 27261 ft | 491 kts | 116° |
| 2026-05-04 02:43 | 35.76425 | -91.58681 | 26487 ft | 485 kts | 116° |
| 2026-05-04 02:43 | 35.74983 | -91.54974 | 25757 ft | 479 kts | 115° |
| 2026-05-04 02:44 | 35.73584 | -91.51277 | 25030 ft | 474 kts | 114° |
| 2026-05-04 02:44 | 35.72220 | -91.47607 | 24315 ft | 469 kts | 114° |
| 2026-05-04 02:44 | 35.70882 | -91.43979 | 23588 ft | 464 kts | 114° |
| 2026-05-04 02:44 | 35.69553 | -91.40378 | 22758 ft | 459 kts | 114° |
| 2026-05-04 02:45 | 35.68240 | -91.36830 | 22017 ft | 453 kts | 114° |
| 2026-05-04 02:45 | 35.66941 | -91.33329 | 21318 ft | 447 kts | 114° |
| 2026-05-04 02:45 | 35.65656 | -91.29878 | 20732 ft | 439 kts | 114° |
| 2026-05-04 02:45 | 35.64407 | -91.26529 | 20389 ft | 426 kts | 114° |
| 2026-05-04 02:46 | 35.63174 | -91.23226 | 19768 ft | 423 kts | 114° |
| 2026-05-04 02:46 | 35.61950 | -91.19954 | 19167 ft | 420 kts | 114° |
| 2026-05-04 02:46 | 35.60557 | -91.16231 | 18468 ft | 417 kts | 114° |
| 2026-05-04 02:46 | 35.59317 | -91.12919 | 17772 ft | 414 kts | 114° |
| 2026-05-04 02:47 | 35.58117 | -91.09718 | 17105 ft | 411 kts | 114° |
| 2026-05-04 02:47 | 35.56925 | -91.06537 | 16434 ft | 409 kts | 114° |
| 2026-05-04 02:47 | 35.55739 | -91.03378 | 15798 ft | 405 kts | 114° |
| 2026-05-04 02:47 | 35.54564 | -91.00250 | 15191 ft | 402 kts | 114° |
| 2026-05-04 02:48 | 35.53411 | -90.97185 | 14557 ft | 385 kts | 114° |
| 2026-05-04 02:48 | 35.52309 | -90.94256 | 13977 ft | 375 kts | 114° |
| 2026-05-04 02:48 | 35.51213 | -90.91347 | 13338 ft | 375 kts | 114° |
| 2026-05-04 02:48 | 35.50403 | -90.89201 | 13185 ft | 366 kts | 114° |
| 2026-05-04 02:49 | 35.49473 | -90.86648 | 12736 ft | 363 kts | 112° |